sensor_id;sensor_type;location;lat;lon;timestamp;temperature;humidity
947;DHT22;460;48.734;9.152;2023-04-10T00:02:25;6.40;79.00
947;DHT22;460;48.734;9.152;2023-04-10T00:04:52;6.40;78.60
947;DHT22;460;48.734;9.152;2023-04-10T00:07:19;6.40;78.30
947;DHT22;460;48.734;9.152;2023-04-10T00:09:47;6.40;79.00
947;DHT22;460;48.734;9.152;2023-04-10T00:12:14;6.30;78.50
947;DHT22;460;48.734;9.152;2023-04-10T00:14:41;6.30;78.90
947;DHT22;460;48.734;9.152;2023-04-10T00:17:07;6.20;79.30
947;DHT22;460;48.734;9.152;2023-04-10T00:19:34;6.20;80.50
947;DHT22;460;48.734;9.152;2023-04-10T00:22:01;6.10;80.20
947;DHT22;460;48.734;9.152;2023-04-10T00:24:28;6.10;80.10
947;DHT22;460;48.734;9.152;2023-04-10T00:26:56;6.00;80.60
947;DHT22;460;48.734;9.152;2023-04-10T00:29:23;5.90;80.80
947;DHT22;460;48.734;9.152;2023-04-10T00:31:50;5.90;81.00
947;DHT22;460;48.734;9.152;2023-04-10T00:34:17;5.90;81.10
947;DHT22;460;48.734;9.152;2023-04-10T00:36:44;5.80;81.30
947;DHT22;460;48.734;9.152;2023-04-10T00:39:12;5.80;81.80
947;DHT22;460;48.734;9.152;2023-04-10T00:41:39;5.80;82.10
947;DHT22;460;48.734;9.152;2023-04-10T00:44:07;5.80;81.30
947;DHT22;460;48.734;9.152;2023-04-10T00:46:35;5.90;81.10
947;DHT22;460;48.734;9.152;2023-04-10T00:49:03;5.90;80.80
947;DHT22;460;48.734;9.152;2023-04-10T00:51:30;5.80;80.90
947;DHT22;460;48.734;9.152;2023-04-10T00:53:59;5.80;80.90
947;DHT22;460;48.734;9.152;2023-04-10T00:56:27;5.70;80.90
947;DHT22;460;48.734;9.152;2023-04-10T00:58:55;5.70;82.10
947;DHT22;460;48.734;9.152;2023-04-10T01:01:23;5.70;82.50
947;DHT22;460;48.734;9.152;2023-04-10T01:03:50;5.70;83.00
947;DHT22;460;48.734;9.152;2023-04-10T01:06:25;5.70;82.50
947;DHT22;460;48.734;9.152;2023-04-10T01:08:56;5.80;82.00
947;DHT22;460;48.734;9.152;2023-04-10T01:11:29;5.80;81.80
947;DHT22;460;48.734;9.152;2023-04-10T01:14:10;5.80;81.80
947;DHT22;460;48.734;9.152;2023-04-10T01:16:45;5.80;81.90
947;DHT22;460;48.734;9.152;2023-04-10T01:19:26;5.80;81.70
947;DHT22;460;48.734;9.152;2023-04-10T01:22:01;5.70;82.30
947;DHT22;460;48.734;9.152;2023-04-10T01:24:47;5.70;82.60
947;DHT22;460;48.734;9.152;2023-04-10T01:27:42;5.70;83.00
947;DHT22;460;48.734;9.152;2023-04-10T01:30:15;5.60;83.10
947;DHT22;460;48.734;9.152;2023-04-10T01:32:44;5.50;83.50
947;DHT22;460;48.734;9.152;2023-04-10T01:35:14;5.30;84.40
947;DHT22;460;48.734;9.152;2023-04-10T01:37:42;5.20;85.00
947;DHT22;460;48.734;9.152;2023-04-10T01:40:14;5.10;85.60
947;DHT22;460;48.734;9.152;2023-04-10T01:42:45;5.00;85.80
947;DHT22;460;48.734;9.152;2023-04-10T01:45:23;5.00;86.20
947;DHT22;460;48.734;9.152;2023-04-10T01:47:52;4.90;85.60
947;DHT22;460;48.734;9.152;2023-04-10T01:50:21;4.90;86.70
947;DHT22;460;48.734;9.152;2023-04-10T01:52:50;4.90;86.90
947;DHT22;460;48.734;9.152;2023-04-10T01:55:18;4.90;86.90
947;DHT22;460;48.734;9.152;2023-04-10T01:57:46;4.80;86.90
947;DHT22;460;48.734;9.152;2023-04-10T02:00:16;4.80;87.30
947;DHT22;460;48.734;9.152;2023-04-10T02:02:44;4.70;88.20
947;DHT22;460;48.734;9.152;2023-04-10T02:05:14;4.60;88.60
947;DHT22;460;48.734;9.152;2023-04-10T02:07:48;4.60;88.70
947;DHT22;460;48.734;9.152;2023-04-10T02:10:21;4.50;89.20
947;DHT22;460;48.734;9.152;2023-04-10T02:12:51;4.50;89.70
947;DHT22;460;48.734;9.152;2023-04-10T02:15:23;4.50;88.90
947;DHT22;460;48.734;9.152;2023-04-10T02:17:52;4.40;89.30
947;DHT22;460;48.734;9.152;2023-04-10T02:20:21;4.30;89.60
947;DHT22;460;48.734;9.152;2023-04-10T02:22:49;4.30;90.00
947;DHT22;460;48.734;9.152;2023-04-10T02:25:16;4.10;90.40
947;DHT22;460;48.734;9.152;2023-04-10T02:27:44;4.00;90.70
947;DHT22;460;48.734;9.152;2023-04-10T02:30:11;3.90;91.00
947;DHT22;460;48.734;9.152;2023-04-10T02:32:40;4.00;91.10
947;DHT22;460;48.734;9.152;2023-04-10T02:35:08;4.10;90.70
947;DHT22;460;48.734;9.152;2023-04-10T02:37:35;4.00;90.60
947;DHT22;460;48.734;9.152;2023-04-10T02:40:03;4.00;90.70
947;DHT22;460;48.734;9.152;2023-04-10T02:42:30;4.10;90.50
947;DHT22;460;48.734;9.152;2023-04-10T02:44:57;4.00;90.10
947;DHT22;460;48.734;9.152;2023-04-10T02:47:24;4.00;90.70
947;DHT22;460;48.734;9.152;2023-04-10T02:49:53;4.00;90.90
947;DHT22;460;48.734;9.152;2023-04-10T02:52:21;4.10;91.10
947;DHT22;460;48.734;9.152;2023-04-10T02:54:48;4.10;91.10
947;DHT22;460;48.734;9.152;2023-04-10T02:57:16;4.00;91.10
947;DHT22;460;48.734;9.152;2023-04-10T02:59:43;4.00;91.20
947;DHT22;460;48.734;9.152;2023-04-10T03:02:11;4.00;91.40
947;DHT22;460;48.734;9.152;2023-04-10T03:04:39;4.00;91.60
947;DHT22;460;48.734;9.152;2023-04-10T03:07:08;4.00;91.70
947;DHT22;460;48.734;9.152;2023-04-10T03:09:35;3.90;91.50
947;DHT22;460;48.734;9.152;2023-04-10T03:12:03;3.80;91.80
947;DHT22;460;48.734;9.152;2023-04-10T03:14:31;3.70;91.50
947;DHT22;460;48.734;9.152;2023-04-10T03:16:57;3.70;91.10
947;DHT22;460;48.734;9.152;2023-04-10T03:19:24;3.70;90.80
947;DHT22;460;48.734;9.152;2023-04-10T03:21:52;3.80;90.60
947;DHT22;460;48.734;9.152;2023-04-10T03:24:20;3.80;90.50
947;DHT22;460;48.734;9.152;2023-04-10T03:26:48;3.70;90.80
947;DHT22;460;48.734;9.152;2023-04-10T03:29:17;3.70;91.20
947;DHT22;460;48.734;9.152;2023-04-10T03:31:45;3.80;91.50
947;DHT22;460;48.734;9.152;2023-04-10T03:34:12;3.90;91.80
947;DHT22;460;48.734;9.152;2023-04-10T03:36:39;3.90;92.00
947;DHT22;460;48.734;9.152;2023-04-10T03:39:05;3.80;92.30
947;DHT22;460;48.734;9.152;2023-04-10T03:41:33;3.70;92.60
947;DHT22;460;48.734;9.152;2023-04-10T03:44:00;3.70;93.00
947;DHT22;460;48.734;9.152;2023-04-10T03:46:28;3.60;93.20
947;DHT22;460;48.734;9.152;2023-04-10T03:48:55;3.70;93.20
947;DHT22;460;48.734;9.152;2023-04-10T03:51:22;3.80;92.90
947;DHT22;460;48.734;9.152;2023-04-10T03:53:49;3.90;92.70
947;DHT22;460;48.734;9.152;2023-04-10T03:56:16;3.90;92.20
947;DHT22;460;48.734;9.152;2023-04-10T03:58:44;3.80;92.10
947;DHT22;460;48.734;9.152;2023-04-10T04:01:11;3.80;92.50
947;DHT22;460;48.734;9.152;2023-04-10T04:03:38;3.70;93.30
947;DHT22;460;48.734;9.152;2023-04-10T04:06:05;3.70;93.20
947;DHT22;460;48.734;9.152;2023-04-10T04:08:32;3.70;93.20
947;DHT22;460;48.734;9.152;2023-04-10T04:11:00;3.80;92.70
947;DHT22;460;48.734;9.152;2023-04-10T04:13:27;3.90;92.30
947;DHT22;460;48.734;9.152;2023-04-10T04:15:55;4.00;92.30
947;DHT22;460;48.734;9.152;2023-04-10T04:18:22;4.00;92.30
947;DHT22;460;48.734;9.152;2023-04-10T04:20:49;4.00;92.30
947;DHT22;460;48.734;9.152;2023-04-10T04:23:15;4.10;92.30
947;DHT22;460;48.734;9.152;2023-04-10T04:25:43;4.20;92.30
947;DHT22;460;48.734;9.152;2023-04-10T04:28:09;4.20;92.20
947;DHT22;460;48.734;9.152;2023-04-10T04:30:38;4.20;92.20
947;DHT22;460;48.734;9.152;2023-04-10T04:33:06;4.20;91.80
947;DHT22;460;48.734;9.152;2023-04-10T04:35:33;4.30;91.80
947;DHT22;460;48.734;9.152;2023-04-10T04:38:00;4.30;91.60
947;DHT22;460;48.734;9.152;2023-04-10T04:40:26;4.30;91.50
947;DHT22;460;48.734;9.152;2023-04-10T04:42:53;4.30;91.40
947;DHT22;460;48.734;9.152;2023-04-10T04:45:20;4.30;91.40
947;DHT22;460;48.734;9.152;2023-04-10T04:47:47;4.40;91.40
947;DHT22;460;48.734;9.152;2023-04-10T04:50:15;4.50;91.30
947;DHT22;460;48.734;9.152;2023-04-10T04:52:45;4.40;91.20
947;DHT22;460;48.734;9.152;2023-04-10T04:55:12;4.50;91.40
947;DHT22;460;48.734;9.152;2023-04-10T04:57:38;4.50;91.40
947;DHT22;460;48.734;9.152;2023-04-10T05:00:06;4.50;91.50
947;DHT22;460;48.734;9.152;2023-04-10T05:02:33;4.60;91.50
947;DHT22;460;48.734;9.152;2023-04-10T05:05:00;4.60;91.50
947;DHT22;460;48.734;9.152;2023-04-10T05:07:28;4.60;91.20
947;DHT22;460;48.734;9.152;2023-04-10T05:09:55;4.60;91.30
947;DHT22;460;48.734;9.152;2023-04-10T05:12:22;4.70;91.30
947;DHT22;460;48.734;9.152;2023-04-10T05:14:49;4.70;91.10
947;DHT22;460;48.734;9.152;2023-04-10T05:17:15;4.80;91.20
947;DHT22;460;48.734;9.152;2023-04-10T05:19:42;4.80;91.00
947;DHT22;460;48.734;9.152;2023-04-10T05:22:09;4.90;90.90
947;DHT22;460;48.734;9.152;2023-04-10T05:24:37;4.90;90.70
947;DHT22;460;48.734;9.152;2023-04-10T05:27:04;5.00;90.80
947;DHT22;460;48.734;9.152;2023-04-10T05:29:31;5.00;90.80
947;DHT22;460;48.734;9.152;2023-04-10T05:31:57;5.00;90.60
947;DHT22;460;48.734;9.152;2023-04-10T05:34:24;5.10;91.20
947;DHT22;460;48.734;9.152;2023-04-10T05:36:51;5.20;90.80
947;DHT22;460;48.734;9.152;2023-04-10T05:39:18;5.20;90.70
947;DHT22;460;48.734;9.152;2023-04-10T05:41:46;5.30;90.70
947;DHT22;460;48.734;9.152;2023-04-10T05:44:13;5.30;90.50
947;DHT22;460;48.734;9.152;2023-04-10T05:46:39;5.30;90.20
947;DHT22;460;48.734;9.152;2023-04-10T05:49:06;5.30;90.00
947;DHT22;460;48.734;9.152;2023-04-10T05:51:33;5.50;90.00
947;DHT22;460;48.734;9.152;2023-04-10T05:54:00;5.50;89.90
947;DHT22;460;48.734;9.152;2023-04-10T05:56:26;5.50;90.20
947;DHT22;460;48.734;9.152;2023-04-10T05:58:55;5.60;90.00
947;DHT22;460;48.734;9.152;2023-04-10T06:01:21;5.70;90.10
947;DHT22;460;48.734;9.152;2023-04-10T06:03:48;5.70;89.30
947;DHT22;460;48.734;9.152;2023-04-10T06:06:15;5.80;88.90
947;DHT22;460;48.734;9.152;2023-04-10T06:08:42;5.80;88.40
947;DHT22;460;48.734;9.152;2023-04-10T06:11:09;5.80;88.50
947;DHT22;460;48.734;9.152;2023-04-10T06:13:36;5.90;89.00
947;DHT22;460;48.734;9.152;2023-04-10T06:16:05;6.00;89.20
947;DHT22;460;48.734;9.152;2023-04-10T06:18:31;6.00;88.80
947;DHT22;460;48.734;9.152;2023-04-10T06:20:59;6.10;88.70
947;DHT22;460;48.734;9.152;2023-04-10T06:23:27;6.20;87.20
947;DHT22;460;48.734;9.152;2023-04-10T06:25:55;6.20;87.20
947;DHT22;460;48.734;9.152;2023-04-10T06:28:23;6.20;87.50
947;DHT22;460;48.734;9.152;2023-04-10T06:30:49;6.20;87.20
947;DHT22;460;48.734;9.152;2023-04-10T06:33:18;6.30;86.70
947;DHT22;460;48.734;9.152;2023-04-10T06:35:45;6.30;87.20
947;DHT22;460;48.734;9.152;2023-04-10T06:38:12;6.40;87.50
947;DHT22;460;48.734;9.152;2023-04-10T06:40:39;6.40;86.20
947;DHT22;460;48.734;9.152;2023-04-10T06:43:06;6.40;86.50
947;DHT22;460;48.734;9.152;2023-04-10T06:45:33;6.40;86.40
947;DHT22;460;48.734;9.152;2023-04-10T06:48:00;6.40;86.30
947;DHT22;460;48.734;9.152;2023-04-10T06:50:28;6.50;86.30
947;DHT22;460;48.734;9.152;2023-04-10T06:52:55;6.50;86.30
947;DHT22;460;48.734;9.152;2023-04-10T06:55:24;6.60;86.70
947;DHT22;460;48.734;9.152;2023-04-10T06:57:51;6.80;86.00
947;DHT22;460;48.734;9.152;2023-04-10T07:00:19;7.00;85.00
947;DHT22;460;48.734;9.152;2023-04-10T07:02:47;7.00;85.50
947;DHT22;460;48.734;9.152;2023-04-10T07:05:14;7.30;84.30
947;DHT22;460;48.734;9.152;2023-04-10T07:07:43;7.40;83.20
947;DHT22;460;48.734;9.152;2023-04-10T07:10:12;7.50;83.00
947;DHT22;460;48.734;9.152;2023-04-10T07:12:39;7.70;81.00
947;DHT22;460;48.734;9.152;2023-04-10T07:15:08;7.80;79.90
947;DHT22;460;48.734;9.152;2023-04-10T07:17:37;8.00;79.70
947;DHT22;460;48.734;9.152;2023-04-10T07:20:06;8.00;79.80
947;DHT22;460;48.734;9.152;2023-04-10T07:22:35;8.10;79.90
947;DHT22;460;48.734;9.152;2023-04-10T07:25:05;8.30;79.50
947;DHT22;460;48.734;9.152;2023-04-10T07:27:33;8.50;77.80
947;DHT22;460;48.734;9.152;2023-04-10T07:30:01;8.60;78.00
947;DHT22;460;48.734;9.152;2023-04-10T07:32:29;8.70;78.70
947;DHT22;460;48.734;9.152;2023-04-10T07:34:58;8.80;76.50
947;DHT22;460;48.734;9.152;2023-04-10T07:37:25;8.90;75.80
947;DHT22;460;48.734;9.152;2023-04-10T07:39:53;8.90;74.70
947;DHT22;460;48.734;9.152;2023-04-10T07:42:22;9.10;74.30
947;DHT22;460;48.734;9.152;2023-04-10T07:44:50;9.30;74.00
947;DHT22;460;48.734;9.152;2023-04-10T07:47:17;9.50;73.90
947;DHT22;460;48.734;9.152;2023-04-10T07:49:46;9.60;73.10
947;DHT22;460;48.734;9.152;2023-04-10T07:52:12;9.70;71.60
947;DHT22;460;48.734;9.152;2023-04-10T07:54:41;9.80;71.00
947;DHT22;460;48.734;9.152;2023-04-10T07:57:08;10.00;68.80
947;DHT22;460;48.734;9.152;2023-04-10T07:59:40;10.00;70.20
947;DHT22;460;48.734;9.152;2023-04-10T08:02:07;10.20;69.40
947;DHT22;460;48.734;9.152;2023-04-10T08:04:34;10.30;68.90
947;DHT22;460;48.734;9.152;2023-04-10T08:07:01;10.30;68.30
947;DHT22;460;48.734;9.152;2023-04-10T08:09:28;10.50;67.90
947;DHT22;460;48.734;9.152;2023-04-10T08:11:55;10.50;65.70
947;DHT22;460;48.734;9.152;2023-04-10T08:14:23;10.60;65.40
947;DHT22;460;48.734;9.152;2023-04-10T08:16:51;10.70;66.00
947;DHT22;460;48.734;9.152;2023-04-10T08:19:17;10.80;64.40
947;DHT22;460;48.734;9.152;2023-04-10T08:21:44;10.80;62.40
947;DHT22;460;48.734;9.152;2023-04-10T08:24:11;10.90;63.40
947;DHT22;460;48.734;9.152;2023-04-10T08:26:38;10.90;63.40
947;DHT22;460;48.734;9.152;2023-04-10T08:29:05;11.00;63.70
947;DHT22;460;48.734;9.152;2023-04-10T08:31:32;11.10;64.00
947;DHT22;460;48.734;9.152;2023-04-10T08:34:00;11.20;63.80
947;DHT22;460;48.734;9.152;2023-04-10T08:36:28;11.40;63.20
947;DHT22;460;48.734;9.152;2023-04-10T08:38:56;11.40;62.70
947;DHT22;460;48.734;9.152;2023-04-10T08:41:22;11.50;61.90
947;DHT22;460;48.734;9.152;2023-04-10T08:43:49;11.50;60.90
947;DHT22;460;48.734;9.152;2023-04-10T08:46:16;11.60;61.90
947;DHT22;460;48.734;9.152;2023-04-10T08:48:46;11.70;62.10
947;DHT22;460;48.734;9.152;2023-04-10T08:51:17;11.80;61.60
947;DHT22;460;48.734;9.152;2023-04-10T08:53:45;11.90;60.40
947;DHT22;460;48.734;9.152;2023-04-10T08:56:15;12.00;59.40
947;DHT22;460;48.734;9.152;2023-04-10T08:58:43;12.10;59.80
947;DHT22;460;48.734;9.152;2023-04-10T09:01:10;12.00;60.20
947;DHT22;460;48.734;9.152;2023-04-10T09:03:37;12.10;60.40
947;DHT22;460;48.734;9.152;2023-04-10T09:06:05;12.10;59.90
947;DHT22;460;48.734;9.152;2023-04-10T09:08:33;12.40;59.90
947;DHT22;460;48.734;9.152;2023-04-10T09:11:00;12.60;59.00
947;DHT22;460;48.734;9.152;2023-04-10T09:13:38;12.60;58.80
947;DHT22;460;48.734;9.152;2023-04-10T09:16:06;12.60;58.40
947;DHT22;460;48.734;9.152;2023-04-10T09:18:44;12.60;58.80
947;DHT22;460;48.734;9.152;2023-04-10T09:21:13;12.70;59.60
947;DHT22;460;48.734;9.152;2023-04-10T09:23:43;12.80;59.30
947;DHT22;460;48.734;9.152;2023-04-10T09:26:24;13.00;59.40
947;DHT22;460;48.734;9.152;2023-04-10T09:29:01;13.10;59.10
947;DHT22;460;48.734;9.152;2023-04-10T09:31:30;13.40;58.60
947;DHT22;460;48.734;9.152;2023-04-10T09:34:12;13.40;57.10
947;DHT22;460;48.734;9.152;2023-04-10T09:36:39;13.70;56.50
947;DHT22;460;48.734;9.152;2023-04-10T09:39:08;13.70;56.00
947;DHT22;460;48.734;9.152;2023-04-10T09:41:47;13.80;57.00
947;DHT22;460;48.734;9.152;2023-04-10T09:44:17;13.90;56.60
947;DHT22;460;48.734;9.152;2023-04-10T09:46:44;14.00;54.70
947;DHT22;460;48.734;9.152;2023-04-10T09:49:11;14.10;55.10
947;DHT22;460;48.734;9.152;2023-04-10T09:51:38;14.20;54.80
947;DHT22;460;48.734;9.152;2023-04-10T09:54:04;14.20;54.50
947;DHT22;460;48.734;9.152;2023-04-10T09:56:35;14.30;53.20
947;DHT22;460;48.734;9.152;2023-04-10T09:59:05;14.40;54.20
947;DHT22;460;48.734;9.152;2023-04-10T10:01:33;14.50;53.50
947;DHT22;460;48.734;9.152;2023-04-10T10:04:01;14.70;54.30
947;DHT22;460;48.734;9.152;2023-04-10T10:06:29;14.70;54.20
947;DHT22;460;48.734;9.152;2023-04-10T10:09:02;15.10;51.20
947;DHT22;460;48.734;9.152;2023-04-10T10:11:33;15.20;51.20
947;DHT22;460;48.734;9.152;2023-04-10T10:14:02;15.30;50.50
947;DHT22;460;48.734;9.152;2023-04-10T10:16:33;15.30;51.20
947;DHT22;460;48.734;9.152;2023-04-10T10:19:07;15.30;50.80
947;DHT22;460;48.734;9.152;2023-04-10T10:21:35;15.40;50.80
947;DHT22;460;48.734;9.152;2023-04-10T10:24:03;15.60;49.50
947;DHT22;460;48.734;9.152;2023-04-10T10:26:34;15.60;48.90
947;DHT22;460;48.734;9.152;2023-04-10T10:29:03;15.60;48.60
947;DHT22;460;48.734;9.152;2023-04-10T10:31:32;15.70;49.80
947;DHT22;460;48.734;9.152;2023-04-10T10:34:02;15.90;49.30
947;DHT22;460;48.734;9.152;2023-04-10T10:36:32;15.90;47.80
947;DHT22;460;48.734;9.152;2023-04-10T10:39:10;15.90;47.00
947;DHT22;460;48.734;9.152;2023-04-10T10:41:45;16.10;46.40
947;DHT22;460;48.734;9.152;2023-04-10T10:44:19;16.00;46.40
947;DHT22;460;48.734;9.152;2023-04-10T10:46:50;16.20;47.00
947;DHT22;460;48.734;9.152;2023-04-10T10:49:19;16.20;46.70
947;DHT22;460;48.734;9.152;2023-04-10T10:51:47;16.50;45.50
947;DHT22;460;48.734;9.152;2023-04-10T10:54:31;16.60;45.60
947;DHT22;460;48.734;9.152;2023-04-10T10:57:00;16.60;46.40
947;DHT22;460;48.734;9.152;2023-04-10T10:59:53;16.70;45.20
947;DHT22;460;48.734;9.152;2023-04-10T11:02:20;16.60;45.30
947;DHT22;460;48.734;9.152;2023-04-10T11:04:47;16.50;45.90
947;DHT22;460;48.734;9.152;2023-04-10T11:07:16;16.50;45.50
947;DHT22;460;48.734;9.152;2023-04-10T11:09:48;16.50;45.30
947;DHT22;460;48.734;9.152;2023-04-10T11:12:21;16.70;45.00
947;DHT22;460;48.734;9.152;2023-04-10T11:14:59;16.70;44.90
947;DHT22;460;48.734;9.152;2023-04-10T11:17:45;16.90;46.00
947;DHT22;460;48.734;9.152;2023-04-10T11:20:12;17.10;44.80
947;DHT22;460;48.734;9.152;2023-04-10T11:23:06;17.30;45.70
947;DHT22;460;48.734;9.152;2023-04-10T11:25:48;17.60;44.10
947;DHT22;460;48.734;9.152;2023-04-10T11:28:36;17.80;43.20
947;DHT22;460;48.734;9.152;2023-04-10T11:31:14;17.90;44.30
947;DHT22;460;48.734;9.152;2023-04-10T11:33:43;18.10;42.90
947;DHT22;460;48.734;9.152;2023-04-10T11:36:13;18.00;41.50
947;DHT22;460;48.734;9.152;2023-04-10T11:38:40;18.60;42.50
947;DHT22;460;48.734;9.152;2023-04-10T11:41:07;18.80;42.30
947;DHT22;460;48.734;9.152;2023-04-10T11:43:33;19.20;41.50
947;DHT22;460;48.734;9.152;2023-04-10T11:46:04;19.40;41.20
947;DHT22;460;48.734;9.152;2023-04-10T11:48:32;19.50;40.50
947;DHT22;460;48.734;9.152;2023-04-10T11:51:06;20.00;40.50
947;DHT22;460;48.734;9.152;2023-04-10T11:53:33;20.40;38.10
947;DHT22;460;48.734;9.152;2023-04-10T11:56:00;20.70;40.40
947;DHT22;460;48.734;9.152;2023-04-10T11:58:28;21.50;38.30
947;DHT22;460;48.734;9.152;2023-04-10T12:01:02;22.30;38.20
947;DHT22;460;48.734;9.152;2023-04-10T12:03:31;23.00;35.60
947;DHT22;460;48.734;9.152;2023-04-10T12:06:00;23.30;34.70
947;DHT22;460;48.734;9.152;2023-04-10T12:08:34;23.20;33.50
947;DHT22;460;48.734;9.152;2023-04-10T12:11:01;22.50;33.70
947;DHT22;460;48.734;9.152;2023-04-10T12:13:29;21.90;33.70
947;DHT22;460;48.734;9.152;2023-04-10T12:16:02;21.40;33.90
947;DHT22;460;48.734;9.152;2023-04-10T12:18:29;20.80;33.80
947;DHT22;460;48.734;9.152;2023-04-10T12:20:57;20.40;33.80
947;DHT22;460;48.734;9.152;2023-04-10T12:23:25;20.10;32.70
947;DHT22;460;48.734;9.152;2023-04-10T12:26:04;19.70;33.60
947;DHT22;460;48.734;9.152;2023-04-10T12:28:32;19.60;34.50
947;DHT22;460;48.734;9.152;2023-04-10T12:31:04;19.50;33.00
947;DHT22;460;48.734;9.152;2023-04-10T12:33:31;19.20;32.80
947;DHT22;460;48.734;9.152;2023-04-10T12:35:58;19.20;33.50
947;DHT22;460;48.734;9.152;2023-04-10T12:38:34;18.80;32.00
947;DHT22;460;48.734;9.152;2023-04-10T12:41:02;18.70;32.70
947;DHT22;460;48.734;9.152;2023-04-10T12:43:48;18.80;32.20
947;DHT22;460;48.734;9.152;2023-04-10T12:46:24;18.50;32.50
947;DHT22;460;48.734;9.152;2023-04-10T12:48:51;18.60;33.70
947;DHT22;460;48.734;9.152;2023-04-10T12:51:18;18.70;34.60
947;DHT22;460;48.734;9.152;2023-04-10T12:53:45;18.70;33.50
947;DHT22;460;48.734;9.152;2023-04-10T12:56:12;18.90;33.60
947;DHT22;460;48.734;9.152;2023-04-10T12:58:39;19.00;34.00
947;DHT22;460;48.734;9.152;2023-04-10T13:01:07;19.20;33.50
947;DHT22;460;48.734;9.152;2023-04-10T13:03:36;19.40;33.70
947;DHT22;460;48.734;9.152;2023-04-10T13:06:04;19.50;33.40
947;DHT22;460;48.734;9.152;2023-04-10T13:08:31;19.90;34.00
947;DHT22;460;48.734;9.152;2023-04-10T13:10:58;20.20;35.00
947;DHT22;460;48.734;9.152;2023-04-10T13:13:28;20.30;35.80
947;DHT22;460;48.734;9.152;2023-04-10T13:15:55;20.90;34.80
947;DHT22;460;48.734;9.152;2023-04-10T13:18:22;21.20;35.60
947;DHT22;460;48.734;9.152;2023-04-10T13:20:51;21.30;33.50
947;DHT22;460;48.734;9.152;2023-04-10T13:23:17;21.50;34.50
947;DHT22;460;48.734;9.152;2023-04-10T13:25:44;21.90;34.10
947;DHT22;460;48.734;9.152;2023-04-10T13:28:12;22.30;33.20
947;DHT22;460;48.734;9.152;2023-04-10T13:30:40;22.30;34.60
947;DHT22;460;48.734;9.152;2023-04-10T13:33:08;22.40;33.60
947;DHT22;460;48.734;9.152;2023-04-10T13:35:34;22.50;33.90
947;DHT22;460;48.734;9.152;2023-04-10T13:38:03;22.30;34.00
947;DHT22;460;48.734;9.152;2023-04-10T13:40:29;22.50;34.40
947;DHT22;460;48.734;9.152;2023-04-10T13:42:56;22.60;33.30
947;DHT22;460;48.734;9.152;2023-04-10T13:45:23;22.80;34.10
947;DHT22;460;48.734;9.152;2023-04-10T13:47:50;22.90;34.30
947;DHT22;460;48.734;9.152;2023-04-10T13:50:17;23.00;33.70
947;DHT22;460;48.734;9.152;2023-04-10T13:52:43;22.50;33.30
947;DHT22;460;48.734;9.152;2023-04-10T13:55:12;22.20;32.40
947;DHT22;460;48.734;9.152;2023-04-10T13:57:38;22.10;33.70
947;DHT22;460;48.734;9.152;2023-04-10T14:00:06;21.90;32.60
947;DHT22;460;48.734;9.152;2023-04-10T14:02:34;21.60;32.80
947;DHT22;460;48.734;9.152;2023-04-10T14:05:02;21.40;33.60
947;DHT22;460;48.734;9.152;2023-04-10T14:07:29;21.30;33.10
947;DHT22;460;48.734;9.152;2023-04-10T14:09:57;20.90;33.80
947;DHT22;460;48.734;9.152;2023-04-10T14:12:25;20.60;33.80
947;DHT22;460;48.734;9.152;2023-04-10T14:14:52;20.50;33.70
947;DHT22;460;48.734;9.152;2023-04-10T14:17:21;20.50;33.70
947;DHT22;460;48.734;9.152;2023-04-10T14:19:47;20.40;34.20
947;DHT22;460;48.734;9.152;2023-04-10T14:22:16;20.40;34.50
947;DHT22;460;48.734;9.152;2023-04-10T14:24:42;20.40;34.40
947;DHT22;460;48.734;9.152;2023-04-10T14:27:09;20.70;34.60
947;DHT22;460;48.734;9.152;2023-04-10T14:29:37;20.90;34.20
947;DHT22;460;48.734;9.152;2023-04-10T14:32:05;21.00;35.30
947;DHT22;460;48.734;9.152;2023-04-10T14:34:31;21.00;35.10
947;DHT22;460;48.734;9.152;2023-04-10T14:36:58;21.00;35.90
947;DHT22;460;48.734;9.152;2023-04-10T14:39:26;20.60;34.80
947;DHT22;460;48.734;9.152;2023-04-10T14:41:53;20.60;37.50
947;DHT22;460;48.734;9.152;2023-04-10T14:44:20;20.70;35.80
947;DHT22;460;48.734;9.152;2023-04-10T14:46:48;20.60;34.90
947;DHT22;460;48.734;9.152;2023-04-10T14:49:14;20.80;35.10
947;DHT22;460;48.734;9.152;2023-04-10T14:51:42;20.50;34.90
947;DHT22;460;48.734;9.152;2023-04-10T14:54:10;20.60;35.30
947;DHT22;460;48.734;9.152;2023-04-10T14:56:37;20.50;35.80
947;DHT22;460;48.734;9.152;2023-04-10T14:59:04;20.60;36.50
947;DHT22;460;48.734;9.152;2023-04-10T15:01:31;20.30;35.60
947;DHT22;460;48.734;9.152;2023-04-10T15:03:59;20.40;35.50
947;DHT22;460;48.734;9.152;2023-04-10T15:06:26;20.30;35.10
947;DHT22;460;48.734;9.152;2023-04-10T15:08:54;20.40;35.80
947;DHT22;460;48.734;9.152;2023-04-10T15:11:21;20.60;35.90
947;DHT22;460;48.734;9.152;2023-04-10T15:13:48;20.60;36.80
947;DHT22;460;48.734;9.152;2023-04-10T15:16:15;20.50;36.70
947;DHT22;460;48.734;9.152;2023-04-10T15:18:46;20.50;35.90
947;DHT22;460;48.734;9.152;2023-04-10T15:21:16;20.20;36.00
947;DHT22;460;48.734;9.152;2023-04-10T15:23:42;20.10;36.10
947;DHT22;460;48.734;9.152;2023-04-10T15:26:10;19.90;36.70
947;DHT22;460;48.734;9.152;2023-04-10T15:28:40;20.00;37.00
947;DHT22;460;48.734;9.152;2023-04-10T15:31:08;19.80;36.80
947;DHT22;460;48.734;9.152;2023-04-10T15:33:35;19.70;37.60
947;DHT22;460;48.734;9.152;2023-04-10T15:36:05;19.70;37.30
947;DHT22;460;48.734;9.152;2023-04-10T15:38:34;19.70;36.90
947;DHT22;460;48.734;9.152;2023-04-10T15:41:07;19.50;37.80
947;DHT22;460;48.734;9.152;2023-04-10T15:43:34;19.40;38.50
947;DHT22;460;48.734;9.152;2023-04-10T15:46:01;19.30;38.90
947;DHT22;460;48.734;9.152;2023-04-10T15:48:28;19.20;39.20
947;DHT22;460;48.734;9.152;2023-04-10T15:50:55;19.10;38.50
947;DHT22;460;48.734;9.152;2023-04-10T15:53:22;18.90;38.40
947;DHT22;460;48.734;9.152;2023-04-10T15:55:50;18.70;38.80
947;DHT22;460;48.734;9.152;2023-04-10T15:58:17;18.60;38.80
947;DHT22;460;48.734;9.152;2023-04-10T16:00:44;18.50;39.10
947;DHT22;460;48.734;9.152;2023-04-10T16:03:11;18.30;39.10
947;DHT22;460;48.734;9.152;2023-04-10T16:05:46;18.20;40.00
947;DHT22;460;48.734;9.152;2023-04-10T16:08:22;18.20;40.10
947;DHT22;460;48.734;9.152;2023-04-10T16:10:57;18.10;40.70
947;DHT22;460;48.734;9.152;2023-04-10T16:13:24;18.00;40.50
947;DHT22;460;48.734;9.152;2023-04-10T16:15:51;18.00;39.60
947;DHT22;460;48.734;9.152;2023-04-10T16:18:18;17.80;38.40
947;DHT22;460;48.734;9.152;2023-04-10T16:20:45;17.60;38.90
947;DHT22;460;48.734;9.152;2023-04-10T16:23:11;17.60;39.50
947;DHT22;460;48.734;9.152;2023-04-10T16:25:38;17.50;39.90
947;DHT22;460;48.734;9.152;2023-04-10T16:28:06;17.50;39.80
947;DHT22;460;48.734;9.152;2023-04-10T16:30:33;17.40;39.70
947;DHT22;460;48.734;9.152;2023-04-10T16:33:00;17.30;39.90
947;DHT22;460;48.734;9.152;2023-04-10T16:35:27;17.40;40.70
947;DHT22;460;48.734;9.152;2023-04-10T16:37:54;17.40;41.10
947;DHT22;460;48.734;9.152;2023-04-10T16:40:20;17.40;40.50
947;DHT22;460;48.734;9.152;2023-04-10T16:42:47;17.40;40.70
947;DHT22;460;48.734;9.152;2023-04-10T16:45:15;17.30;40.60
947;DHT22;460;48.734;9.152;2023-04-10T16:47:42;17.30;40.60
947;DHT22;460;48.734;9.152;2023-04-10T16:50:10;17.30;41.30
947;DHT22;460;48.734;9.152;2023-04-10T16:52:37;17.20;41.40